createdAt,value
2018-12-07T00:00:24.469Z,5.03
2018-12-07T00:00:59.116Z,4.70
2018-12-07T00:01:33.803Z,5.20
2018-12-07T00:02:09.815Z,5.37
2018-12-07T00:02:44.791Z,4.83
2018-12-07T00:03:19.435Z,5.17
2018-12-07T00:03:54.157Z,5.10
2018-12-07T00:04:28.746Z,5.63
2018-12-07T00:05:04.473Z,5.43
2018-12-07T00:05:39.065Z,5.00
2018-12-07T00:06:13.802Z,5.17
2018-12-07T00:06:48.460Z,5.40
2018-12-07T00:07:23.184Z,5.20
2018-12-07T00:07:57.825Z,5.50
2018-12-07T00:08:32.446Z,5.30
2018-12-07T00:09:07.379Z,5.10
2018-12-07T00:09:41.999Z,5.77
2018-12-07T00:10:16.976Z,5.23
2018-12-07T00:10:51.613Z,5.30
2018-12-07T00:11:26.890Z,6.00
2018-12-07T00:12:01.478Z,5.60
2018-12-07T00:12:36.682Z,5.27
2018-12-07T00:13:11.276Z,6.20
2018-12-07T00:13:46.347Z,5.63
2018-12-07T00:14:20.939Z,5.33
2018-12-07T00:14:55.697Z,5.67
2018-12-07T00:15:30.736Z,5.80
2018-12-07T00:16:05.841Z,5.17
2018-12-07T00:16:40.414Z,5.47
2018-12-07T00:17:15.006Z,6.30
2018-12-07T00:17:49.616Z,6.47
2018-12-07T00:18:24.330Z,5.97
2018-12-07T00:18:59.013Z,6.20
2018-12-07T00:19:33.605Z,5.80
2018-12-07T00:20:09.615Z,5.67
2018-12-07T00:20:44.210Z,5.50
2018-12-07T00:21:18.882Z,6.00
2018-12-07T00:21:54.006Z,6.10
2018-12-07T00:22:28.615Z,5.73
2018-12-07T00:23:03.202Z,5.77
2018-12-07T00:23:37.782Z,5.87
2018-12-07T00:24:12.747Z,5.90
2018-12-07T00:24:47.393Z,5.60
2018-12-07T00:25:23.434Z,5.50
2018-12-07T00:25:58.050Z,5.53
2018-12-07T00:26:32.692Z,5.80
2018-12-07T00:27:07.287Z,5.60
2018-12-07T00:27:41.868Z,5.07
2018-12-07T00:28:16.513Z,6.07
2018-12-07T00:28:51.278Z,5.97
2018-12-07T00:29:26.038Z,5.70
2018-12-07T00:30:00.678Z,5.20
2018-12-07T00:30:35.839Z,5.27
2018-12-07T00:31:10.768Z,5.90
2018-12-07T00:31:45.465Z,5.50
2018-12-07T00:32:20.134Z,5.40
2018-12-07T00:32:54.778Z,5.90
2018-12-07T00:33:29.395Z,5.37
2018-12-07T00:34:04.572Z,6.00
2018-12-07T00:34:39.176Z,5.70
2018-12-07T00:35:14.514Z,5.13
2018-12-07T00:35:49.148Z,5.60
2018-12-07T00:36:23.793Z,5.93
2018-12-07T00:36:58.381Z,5.80
2018-12-07T00:37:33.205Z,5.70
2018-12-07T00:38:07.827Z,5.43
2018-12-07T00:38:42.427Z,5.90
2018-12-07T00:39:17.092Z,5.80
2018-12-07T00:39:51.837Z,6.17
2018-12-07T00:40:26.485Z,6.17
2018-12-07T00:41:01.178Z,5.80
2018-12-07T00:41:35.807Z,5.30
2018-12-07T00:42:10.412Z,6.17
2018-12-07T00:42:45.040Z,6.43
2018-12-07T00:43:19.711Z,5.93
2018-12-07T00:43:54.394Z,5.70
2018-12-07T00:44:28.977Z,5.73
2018-12-07T00:45:04.699Z,5.70
2018-12-07T00:45:39.326Z,6.13
2018-12-07T00:46:13.989Z,5.97
2018-12-07T00:46:48.677Z,6.53
2018-12-07T00:47:23.420Z,5.80
2018-12-07T00:47:58.017Z,6.10
2018-12-07T00:48:32.680Z,6.23
2018-12-07T00:49:07.344Z,5.77
2018-12-07T00:49:41.932Z,5.50
2018-12-07T00:50:16.525Z,5.83
2018-12-07T00:50:51.298Z,6.33
2018-12-07T00:51:25.897Z,6.27
2018-12-07T00:52:00.565Z,6.00
2018-12-07T00:52:35.120Z,5.83
2018-12-07T00:53:09.803Z,5.80
2018-12-07T00:53:44.389Z,5.13
2018-12-07T00:54:18.979Z,5.70
2018-12-07T00:54:53.561Z,5.20
2018-12-07T00:55:38.801Z,5.30
2018-12-07T00:56:13.457Z,5.27
2018-12-07T00:56:48.271Z,5.53
2018-12-07T00:57:22.865Z,5.27
2018-12-07T00:57:57.466Z,5.43
2018-12-07T00:58:32.087Z,5.60
2018-12-07T00:59:06.675Z,5.43
2018-12-07T00:59:41.283Z,5.23
2018-12-07T01:00:15.908Z,5.30
2018-12-07T01:00:50.620Z,5.60
2018-12-07T01:01:25.241Z,5.23
2018-12-07T01:01:59.830Z,5.57
2018-12-07T01:02:34.447Z,4.80
2018-12-07T01:03:09.063Z,5.20
2018-12-07T01:03:43.646Z,4.87
2018-12-07T01:04:18.298Z,5.27
2018-12-07T01:04:52.894Z,4.80
2018-12-07T01:05:27.736Z,4.60
2018-12-07T01:06:02.288Z,4.93
2018-12-07T01:06:36.906Z,5.20
2018-12-07T01:07:11.481Z,4.87
2018-12-07T01:07:46.078Z,5.53
2018-12-07T01:08:20.691Z,5.40
2018-12-07T01:08:55.579Z,4.83
2018-12-07T01:09:30.165Z,5.37
2018-12-07T01:10:06.233Z,4.63
2018-12-07T01:10:41.324Z,5.53
2018-12-07T01:11:15.942Z,4.70
2018-12-07T01:11:50.610Z,5.20
2018-12-07T01:12:25.239Z,4.97
2018-12-07T01:12:59.825Z,5.73
2018-12-07T01:13:34.383Z,5.17
2018-12-07T01:14:09.326Z,4.40
2018-12-07T01:14:44.465Z,5.43
2018-12-07T01:15:19.251Z,4.90
2018-12-07T01:15:53.879Z,4.90
2018-12-07T01:16:28.528Z,5.17
2018-12-07T01:17:03.160Z,5.10
2018-12-07T01:17:37.779Z,5.00
2018-12-07T01:18:12.784Z,5.30
2018-12-07T01:18:47.530Z,4.60
2018-12-07T01:19:22.168Z,5.17
2018-12-07T01:19:56.758Z,4.77
2018-12-07T01:20:31.405Z,5.27
2018-12-07T01:21:06.247Z,5.17
2018-12-07T01:21:41.005Z,5.17
2018-12-07T01:22:22.413Z,4.87
2018-12-07T01:22:57.036Z,4.80
2018-12-07T01:23:32.014Z,5.40
2018-12-07T01:24:06.645Z,5.30
2018-12-07T01:24:41.210Z,4.70
2018-12-07T01:25:15.835Z,5.20
2018-12-07T01:26:20.344Z,4.77
2018-12-07T01:26:55.031Z,5.17
2018-12-07T01:27:29.713Z,4.67
2018-12-07T01:28:04.333Z,4.90
2018-12-07T01:28:38.913Z,4.57
2018-12-07T01:29:13.547Z,4.60
2018-12-07T01:29:48.372Z,5.13
2018-12-07T01:30:23.026Z,4.53
2018-12-07T01:30:57.645Z,4.60
2018-12-07T01:31:32.306Z,4.43
2018-12-07T01:32:07.384Z,4.40
2018-12-07T01:32:42.075Z,4.20
2018-12-07T01:33:16.744Z,4.53
2018-12-07T01:33:51.431Z,4.07
2018-12-07T01:34:26.090Z,4.50
2018-12-07T01:35:00.748Z,4.70
2018-12-07T01:35:35.369Z,4.27
2018-12-07T01:36:10.245Z,4.27
2018-12-07T01:36:44.844Z,4.33
2018-12-07T01:37:19.923Z,3.97
2018-12-07T01:37:54.549Z,4.30
2018-12-07T01:38:29.246Z,4.10
2018-12-07T01:39:06.252Z,4.30
2018-12-07T01:39:40.861Z,4.40
2018-12-07T01:40:15.457Z,4.00
2018-12-07T01:40:50.051Z,4.40
2018-12-07T01:41:24.704Z,4.23
2018-12-07T01:41:59.513Z,4.47
2018-12-07T01:42:34.096Z,4.17
2018-12-07T01:43:08.702Z,4.10
2018-12-07T01:43:43.317Z,4.13
2018-12-07T01:44:18.026Z,4.20
2018-12-07T01:44:52.912Z,4.13
2018-12-07T01:45:27.562Z,4.17
2018-12-07T01:46:02.298Z,4.57
2018-12-07T01:46:36.881Z,4.77
2018-12-07T01:47:11.496Z,4.47
2018-12-07T01:47:46.440Z,4.63
2018-12-07T01:48:21.162Z,4.53
2018-12-07T01:48:55.944Z,4.47
2018-12-07T01:49:30.969Z,4.73
2018-12-07T01:50:06.575Z,4.80
2018-12-07T01:50:41.409Z,4.40
2018-12-07T01:51:16.236Z,4.60
2018-12-07T01:51:50.905Z,4.40
2018-12-07T01:52:25.566Z,4.27
2018-12-07T01:53:00.210Z,4.20
2018-12-07T01:53:34.854Z,4.60
2018-12-07T01:54:09.735Z,4.23
2018-12-07T01:54:44.349Z,3.77
2018-12-07T01:55:19.086Z,4.00
2018-12-07T01:55:53.844Z,4.03
2018-12-07T01:56:28.534Z,4.10
2018-12-07T01:57:03.119Z,4.30
2018-12-07T01:57:37.742Z,4.40
2018-12-07T01:58:12.381Z,4.47
2018-12-07T01:58:47.110Z,4.50
2018-12-07T01:59:21.940Z,4.47
2018-12-07T01:59:56.576Z,4.50
2018-12-07T02:00:32.116Z,3.70
2018-12-07T02:01:06.738Z,3.80
2018-12-07T02:01:41.327Z,4.00
2018-12-07T02:02:16.077Z,4.00
2018-12-07T02:02:50.960Z,3.90
2018-12-07T02:03:25.738Z,4.03
2018-12-07T02:04:00.485Z,3.80
2018-12-07T02:04:35.169Z,3.90
2018-12-07T02:05:10.293Z,4.00
2018-12-07T02:05:44.912Z,4.20
2018-12-07T02:06:19.695Z,3.50
2018-12-07T02:06:54.847Z,3.70
2018-12-07T02:07:34.769Z,3.83
2018-12-07T02:08:09.379Z,3.30
2018-12-07T02:08:44.046Z,3.47
2018-12-07T02:09:19.093Z,3.10
2018-12-07T02:09:53.968Z,3.43
2018-12-07T02:10:28.568Z,3.40
2018-12-07T02:11:03.158Z,3.47
2018-12-07T02:11:37.822Z,3.30
2018-12-07T02:12:12.445Z,3.13
2018-12-07T02:12:47.202Z,3.13
2018-12-07T02:13:21.916Z,3.43
2018-12-07T02:13:56.568Z,3.47
2018-12-07T02:14:31.216Z,3.97
2018-12-07T02:15:07.172Z,3.70
2018-12-07T02:15:41.867Z,3.43
2018-12-07T02:16:16.542Z,3.20
2018-12-07T02:16:51.210Z,3.50
2018-12-07T02:17:25.959Z,3.73
2018-12-07T02:18:00.650Z,3.60
2018-12-07T02:18:35.330Z,3.50
2018-12-07T02:19:09.927Z,3.30
2018-12-07T02:19:44.521Z,3.73
2018-12-07T02:20:19.496Z,3.40
2018-12-07T02:20:54.297Z,3.13
2018-12-07T02:21:28.902Z,3.60
2018-12-07T02:22:04.421Z,3.37
2018-12-07T02:22:39.072Z,3.17
2018-12-07T02:23:13.677Z,3.60
2018-12-07T02:23:48.380Z,3.47
2018-12-07T02:24:23.052Z,3.37
2018-12-07T02:24:57.641Z,3.30
2018-12-07T02:25:32.259Z,3.43
2018-12-07T02:26:06.875Z,3.43
2018-12-07T02:26:41.458Z,3.13
2018-12-07T02:27:16.111Z,3.30
2018-12-07T02:27:56.029Z,3.23
2018-12-07T02:28:30.845Z,2.80
2018-12-07T02:29:05.434Z,3.23
2018-12-07T02:29:40.515Z,3.50
2018-12-07T02:30:15.104Z,3.10
2018-12-07T02:30:49.832Z,3.40
2018-12-07T02:31:24.469Z,3.67
2018-12-07T02:31:59.056Z,3.23
2018-12-07T02:32:33.646Z,3.77
2018-12-07T02:33:08.275Z,3.60
2018-12-07T02:33:43.307Z,3.43
2018-12-07T02:34:18.110Z,3.17
2018-12-07T02:34:52.752Z,3.17
2018-12-07T02:35:27.362Z,3.73
2018-12-07T02:37:05.111Z,3.17
2018-12-07T02:37:39.720Z,3.43
2018-12-07T02:38:14.359Z,3.27
2018-12-07T02:38:48.999Z,4.00
2018-12-07T02:39:23.662Z,3.63
2018-12-07T02:39:58.260Z,4.00
2018-12-07T02:40:33.036Z,4.00
2018-12-07T02:41:07.604Z,3.37
2018-12-07T02:41:42.254Z,3.83
2018-12-07T02:42:17.086Z,4.00
2018-12-07T02:42:51.803Z,3.40
2018-12-07T02:43:26.492Z,4.23
2018-12-07T02:44:01.573Z,3.67
2018-12-07T02:44:36.533Z,3.97
2018-12-07T02:45:11.977Z,4.27
2018-12-07T02:45:46.613Z,4.20
2018-12-07T02:46:21.838Z,4.07
2018-12-07T02:46:56.450Z,4.13
2018-12-07T02:47:31.091Z,4.23
2018-12-07T02:48:06.384Z,3.63
2018-12-07T02:48:40.985Z,3.80
2018-12-07T02:49:15.610Z,4.00
2018-12-07T02:49:50.294Z,4.20
2018-12-07T02:50:25.081Z,3.87
2018-12-07T02:50:59.696Z,3.80
2018-12-07T02:51:34.286Z,3.83
2018-12-07T02:52:08.897Z,3.90
2018-12-07T02:52:43.533Z,4.20
2018-12-07T02:53:18.267Z,3.73
2018-12-07T02:53:53.048Z,4.37
2018-12-07T02:54:27.794Z,4.17
2018-12-07T02:55:02.391Z,4.00
2018-12-07T02:55:37.022Z,4.30
2018-12-07T02:56:11.629Z,4.30
2018-12-07T02:56:46.273Z,4.57
2018-12-07T02:57:20.935Z,4.37
2018-12-07T02:57:55.880Z,4.17
2018-12-07T02:58:30.507Z,4.60
2018-12-07T02:59:05.246Z,4.33
2018-12-07T02:59:39.813Z,4.30
2018-12-07T03:00:15.395Z,4.40
2018-12-07T03:00:50.384Z,4.80
2018-12-07T03:01:25.075Z,4.73
2018-12-07T03:02:00.048Z,4.60
2018-12-07T03:02:34.643Z,5.33
2018-12-07T03:03:09.267Z,5.00
2018-12-07T03:03:43.971Z,4.40
2018-12-07T03:04:18.968Z,4.63
2018-12-07T03:04:53.585Z,4.93
2018-12-07T03:05:28.234Z,4.40
2018-12-07T03:06:02.837Z,5.07
2018-12-07T03:06:37.413Z,4.47
2018-12-07T03:07:12.070Z,4.87
2018-12-07T03:07:46.678Z,4.43
2018-12-07T03:08:21.646Z,4.83
2018-12-07T03:08:56.317Z,5.00
2018-12-07T03:09:30.923Z,5.20
2018-12-07T03:10:06.432Z,5.23
2018-12-07T03:10:41.114Z,5.07
2018-12-07T03:11:15.757Z,5.10
2018-12-07T03:11:50.739Z,4.90
2018-12-07T03:12:25.422Z,4.90
2018-12-07T03:13:00.020Z,5.27
2018-12-07T03:13:34.597Z,5.30
2018-12-07T03:14:09.193Z,4.90
2018-12-07T03:14:43.888Z,4.60
2018-12-07T03:15:18.573Z,5.17
2018-12-07T03:15:53.215Z,5.30
2018-12-07T03:16:27.870Z,4.40
2018-12-07T03:17:02.467Z,5.10
2018-12-07T03:17:37.062Z,5.53
2018-12-07T03:18:42.905Z,5.80
2018-12-07T03:19:17.625Z,5.13
2018-12-07T03:19:52.521Z,6.10
2018-12-07T03:20:27.182Z,5.90
2018-12-07T03:21:01.832Z,4.67
2018-12-07T03:21:36.412Z,5.60
2018-12-07T03:22:11.010Z,5.43
2018-12-07T03:22:45.663Z,5.70
2018-12-07T03:23:20.457Z,7.00
2018-12-07T03:23:55.169Z,5.30
2018-12-07T03:24:29.785Z,5.13
2018-12-07T03:25:05.787Z,5.37
2018-12-07T03:25:40.413Z,5.63
2018-12-07T03:26:15.085Z,5.40
2018-12-07T03:26:49.690Z,5.50
2018-12-07T03:27:24.281Z,5.40
2018-12-07T03:27:58.890Z,5.80
2018-12-07T03:28:33.473Z,5.40
2018-12-07T03:29:08.054Z,5.93
2018-12-07T03:29:42.644Z,5.17
2018-12-07T03:30:17.295Z,5.70
2018-12-07T03:30:52.019Z,6.37
2018-12-07T03:31:26.658Z,5.60
2018-12-07T03:32:01.271Z,5.70
2018-12-07T03:32:36.136Z,5.13
2018-12-07T03:33:10.834Z,5.50
2018-12-07T03:33:45.444Z,5.23
2018-12-07T03:34:20.118Z,5.30
2018-12-07T03:34:54.790Z,4.67
2018-12-07T03:35:29.398Z,4.90
2018-12-07T03:36:04.033Z,5.30
2018-12-07T03:36:38.742Z,5.03
2018-12-07T03:37:13.332Z,4.93
2018-12-07T03:37:47.947Z,4.47
2018-12-07T03:38:22.679Z,5.07
2018-12-07T03:38:57.252Z,4.53
2018-12-07T03:39:31.840Z,5.27
2018-12-07T03:40:07.358Z,4.73
2018-12-07T03:40:41.979Z,4.90
2018-12-07T03:41:16.892Z,4.70
2018-12-07T03:41:51.979Z,5.23
2018-12-07T03:42:26.566Z,5.73
2018-12-07T03:43:01.226Z,5.63
2018-12-07T03:43:35.842Z,4.80
2018-12-07T03:44:10.430Z,5.57
2018-12-07T03:44:45.111Z,4.80
2018-12-07T03:45:19.917Z,5.27
2018-12-07T03:45:54.618Z,4.83
2018-12-07T03:46:29.763Z,4.87
2018-12-07T03:47:04.869Z,4.77
2018-12-07T03:47:39.550Z,4.37
2018-12-07T03:48:14.173Z,4.70
2018-12-07T03:48:49.152Z,4.77
2018-12-07T03:49:23.957Z,5.13
2018-12-07T03:49:58.617Z,4.70
2018-12-07T03:50:33.233Z,5.13
2018-12-07T03:51:07.870Z,5.23
2018-12-07T03:51:42.500Z,5.00
2018-12-07T03:52:17.229Z,4.90
2018-12-07T03:52:51.941Z,5.57
2018-12-07T03:53:26.586Z,5.43
2018-12-07T03:55:04.531Z,5.50
2018-12-07T03:55:39.193Z,5.27
2018-12-07T03:56:13.838Z,5.10
2018-12-07T03:56:48.647Z,5.77
2018-12-07T03:57:23.465Z,5.60
2018-12-07T03:57:58.134Z,5.57
2018-12-07T03:58:32.793Z,5.53
2018-12-07T03:59:07.486Z,5.83
2018-12-07T03:59:42.126Z,5.50
2018-12-07T04:00:16.802Z,5.43
2018-12-07T04:01:54.600Z,5.50
2018-12-07T04:02:29.811Z,6.07
2018-12-07T04:03:04.416Z,5.70
2018-12-07T04:03:39.065Z,5.57
2018-12-07T04:04:14.261Z,5.93
2018-12-07T04:04:49.179Z,6.20
2018-12-07T04:05:23.828Z,5.93
2018-12-07T04:05:58.541Z,6.13
2018-12-07T04:06:33.382Z,5.67
2018-12-07T04:07:08.490Z,6.50
2018-12-07T04:07:43.159Z,6.40
2018-12-07T04:08:17.863Z,5.80
2018-12-07T04:08:52.564Z,5.80
2018-12-07T04:09:27.209Z,5.93
2018-12-07T04:10:01.840Z,5.67
2018-12-07T04:10:36.445Z,5.80
2018-12-07T04:11:11.084Z,6.07
2018-12-07T04:11:45.791Z,6.27
2018-12-07T04:12:20.582Z,6.30
2018-12-07T04:12:55.246Z,5.67
2018-12-07T04:13:29.941Z,6.37
2018-12-07T04:14:05.029Z,6.40
2018-12-07T04:14:39.641Z,6.03
2018-12-07T04:15:14.310Z,6.17
2018-12-07T04:15:49.395Z,5.93
2018-12-07T04:16:24.574Z,5.97
2018-12-07T04:16:59.413Z,6.20
2018-12-07T04:17:34.048Z,6.30
2018-12-07T04:18:08.923Z,6.47
2018-12-07T04:18:43.550Z,6.40
2018-12-07T04:19:18.381Z,6.20
2018-12-07T04:19:53.090Z,6.17
2018-12-07T04:20:27.701Z,5.93
2018-12-07T04:21:02.352Z,5.70
2018-12-07T04:21:36.977Z,5.73
2018-12-07T04:23:14.665Z,5.67
2018-12-07T04:23:49.659Z,5.03
2018-12-07T04:24:24.372Z,5.13
2018-12-07T04:24:59.075Z,5.27
2018-12-07T04:25:33.799Z,5.83
2018-12-07T04:26:08.451Z,5.50
2018-12-07T04:26:43.059Z,5.20
2018-12-07T04:27:17.784Z,5.23
2018-12-07T04:27:52.890Z,4.57
2018-12-07T04:28:27.536Z,5.30
2018-12-07T04:29:02.170Z,5.07
2018-12-07T04:29:36.778Z,4.83
2018-12-07T04:30:23.100Z,4.87
2018-12-07T04:30:57.823Z,4.87
2018-12-07T04:31:32.578Z,4.30
2018-12-07T04:32:07.254Z,4.13
2018-12-07T04:32:41.853Z,4.73
2018-12-07T04:33:16.646Z,4.13
2018-12-07T04:33:51.646Z,3.97
2018-12-07T04:34:26.836Z,3.90
2018-12-07T04:35:01.442Z,4.10
2018-12-07T04:35:36.056Z,3.53
2018-12-07T04:36:10.688Z,4.10
2018-12-07T04:36:45.314Z,4.07
2018-12-07T04:37:20.061Z,4.10
2018-12-07T04:37:55.050Z,3.93
2018-12-07T04:38:29.662Z,3.87
2018-12-07T04:39:06.554Z,3.90
2018-12-07T04:39:41.170Z,4.23
2018-12-07T04:40:16.399Z,4.10
2018-12-07T04:40:51.113Z,4.20
2018-12-07T04:41:25.809Z,4.30
2018-12-07T04:42:00.422Z,4.03
2018-12-07T04:42:35.229Z,4.10
2018-12-07T04:43:09.850Z,4.30
2018-12-07T04:43:44.547Z,4.63
2018-12-07T04:44:19.360Z,4.10
2018-12-07T04:44:54.165Z,4.43
2018-12-07T04:45:29.244Z,4.83
2018-12-07T04:46:04.342Z,5.07
2018-12-07T04:46:38.947Z,5.13
2018-12-07T04:47:13.553Z,4.77
2018-12-07T04:47:48.393Z,4.60
2018-12-07T04:48:23.127Z,5.10
2018-12-07T04:48:57.779Z,4.90
2018-12-07T04:49:32.381Z,4.87
2018-12-07T04:50:07.991Z,5.03
2018-12-07T04:50:42.572Z,4.60
2018-12-07T04:51:17.661Z,4.70
2018-12-07T04:51:52.531Z,4.90
2018-12-07T04:52:27.109Z,5.07
2018-12-07T04:53:01.700Z,5.27
2018-12-07T04:53:36.724Z,5.10
2018-12-07T04:54:11.336Z,5.07
2018-12-07T04:54:45.970Z,6.40
2018-12-07T04:55:20.915Z,5.30
2018-12-07T04:55:55.593Z,5.77
2018-12-07T04:56:30.306Z,5.43
2018-12-07T04:57:05.755Z,5.80
2018-12-07T04:57:40.368Z,5.63
2018-12-07T04:58:15.137Z,5.13
2018-12-07T04:58:50.148Z,4.87
2018-12-07T04:59:25.000Z,5.27
2018-12-07T04:59:59.861Z,5.87
2018-12-07T05:00:34.447Z,5.43
2018-12-07T05:01:09.342Z,6.57
2018-12-07T05:01:44.406Z,5.43
2018-12-07T05:02:19.166Z,5.07
2018-12-07T05:02:54.483Z,5.23
2018-12-07T05:03:29.080Z,5.90
2018-12-07T05:04:03.672Z,5.60
2018-12-07T05:04:38.248Z,5.80
2018-12-07T05:05:12.846Z,6.23
2018-12-07T05:05:48.668Z,5.70
2018-12-07T05:06:23.541Z,6.13
2018-12-07T05:06:58.204Z,6.13
2018-12-07T05:07:32.872Z,5.67
2018-12-07T05:08:07.483Z,6.23
2018-12-07T05:08:42.074Z,6.10
2018-12-07T05:09:16.761Z,5.33
2018-12-07T05:09:51.982Z,5.30
2018-12-07T05:10:26.608Z,5.17
2018-12-07T05:11:01.204Z,5.30
2018-12-07T05:11:35.907Z,5.63
2018-12-07T05:12:10.718Z,5.63
2018-12-07T05:12:45.904Z,6.00
2018-12-07T05:13:21.088Z,5.87
2018-12-07T05:13:55.738Z,5.20
2018-12-07T05:14:30.326Z,5.43
2018-12-07T05:15:06.396Z,5.83
2018-12-07T05:15:41.081Z,5.70
2018-12-07T05:16:15.714Z,6.27
2018-12-07T05:16:50.610Z,6.33
2018-12-07T05:17:25.355Z,6.23
2018-12-07T05:18:00.010Z,5.40
2018-12-07T05:18:34.595Z,5.43
2018-12-07T05:19:09.192Z,6.50
2018-12-07T05:19:43.807Z,6.23
2018-12-07T05:20:18.495Z,6.20
2018-12-07T05:20:53.244Z,6.67
2018-12-07T05:21:27.918Z,5.73
2018-12-07T05:22:02.550Z,5.97
2018-12-07T05:22:37.159Z,6.40
2018-12-07T05:23:12.493Z,6.30
2018-12-07T05:23:47.447Z,6.17
2018-12-07T05:24:22.839Z,5.93
2018-12-07T05:24:57.665Z,5.40
2018-12-07T05:25:32.466Z,5.20
2018-12-07T05:26:07.193Z,5.90
2018-12-07T05:26:41.834Z,6.27
2018-12-07T05:27:16.571Z,5.83
2018-12-07T05:27:51.587Z,5.80
2018-12-07T05:28:26.273Z,5.67
2018-12-07T05:29:01.309Z,5.90
2018-12-07T05:29:35.982Z,5.80
2018-12-07T05:30:10.736Z,5.03
2018-12-07T05:30:45.351Z,5.57
2018-12-07T05:31:20.118Z,5.47
2018-12-07T05:31:54.951Z,4.97
2018-12-07T05:32:29.597Z,5.80
2018-12-07T05:33:04.210Z,5.47
2018-12-07T05:33:38.953Z,5.73
2018-12-07T05:34:14.050Z,5.50
2018-12-07T05:34:48.701Z,5.60
2018-12-07T05:35:23.534Z,5.03
2018-12-07T05:35:58.328Z,5.60
2018-12-07T05:36:33.006Z,5.63
2018-12-07T05:37:07.622Z,4.70
2018-12-07T05:37:42.253Z,4.90
2018-12-07T05:38:17.387Z,5.13
2018-12-07T05:38:52.196Z,4.97
2018-12-07T05:39:28.364Z,4.67
2018-12-07T05:40:03.646Z,4.37
2018-12-07T05:40:38.261Z,4.43
2018-12-07T05:41:13.142Z,4.67
2018-12-07T05:41:47.843Z,4.80
2018-12-07T05:42:22.888Z,5.00
2018-12-07T05:42:57.596Z,3.80
2018-12-07T05:43:32.215Z,3.97
2018-12-07T05:44:06.883Z,4.03
2018-12-07T05:44:41.550Z,3.37
2018-12-07T05:45:16.327Z,2.97
2018-12-07T05:45:51.444Z,3.10
2018-12-07T05:46:26.145Z,2.63
2018-12-07T05:47:00.828Z,2.50
2018-12-07T05:47:35.898Z,2.43
2018-12-07T05:48:10.510Z,2.70
2018-12-07T05:48:45.117Z,2.40
2018-12-07T05:49:19.885Z,2.03
2018-12-07T05:49:54.924Z,2.10
2018-12-07T05:50:29.583Z,1.60
2018-12-07T05:51:04.195Z,2.00
2018-12-07T05:51:38.910Z,1.80
2018-12-07T05:52:13.663Z,1.60
2018-12-07T05:52:48.588Z,1.70
2018-12-07T05:53:23.630Z,1.80
2018-12-07T05:53:58.516Z,1.80
2018-12-07T05:54:33.238Z,1.90
2018-12-07T05:55:08.281Z,1.53
2018-12-07T05:55:42.895Z,1.40
2018-12-07T05:56:17.634Z,1.33
2018-12-07T05:56:52.605Z,1.50
2018-12-07T05:57:27.278Z,1.60
2018-12-07T05:58:02.317Z,1.40
2018-12-07T05:58:36.966Z,1.50
2018-12-07T05:59:11.561Z,1.50
2018-12-07T05:59:46.195Z,1.30
2018-12-07T06:00:20.885Z,1.60
2018-12-07T06:00:55.644Z,1.97
2018-12-07T06:01:30.420Z,1.80
2018-12-07T06:02:05.273Z,1.60
2018-12-07T06:02:40.003Z,1.50
2018-12-07T06:03:14.616Z,1.40
2018-12-07T06:03:49.378Z,1.53
2018-12-07T06:04:24.047Z,1.20
2018-12-07T06:04:58.736Z,1.37
2018-12-07T06:05:33.364Z,2.00
2018-12-07T06:06:08.635Z,1.30
2018-12-07T06:06:43.265Z,1.87
2018-12-07T06:07:18.160Z,2.37
2018-12-07T06:07:52.958Z,1.60
2018-12-07T06:08:27.654Z,1.70
2018-12-07T06:09:02.725Z,1.70
2018-12-07T06:09:37.504Z,1.23
2018-12-07T06:10:12.696Z,1.63
2018-12-07T06:10:47.681Z,1.27
2018-12-07T06:11:23.253Z,1.57
2018-12-07T06:11:58.373Z,1.50
2018-12-07T06:12:33.713Z,1.63
2018-12-07T06:13:08.373Z,1.50
2018-12-07T06:13:43.004Z,1.70
2018-12-07T06:14:17.753Z,1.63
2018-12-07T06:14:52.559Z,1.43
2018-12-07T06:15:27.444Z,1.53
2018-12-07T06:16:02.071Z,1.40
2018-12-07T06:16:36.752Z,1.50
2018-12-07T06:17:11.643Z,1.60
2018-12-07T06:17:46.344Z,1.57
2018-12-07T06:18:21.390Z,1.53
2018-12-07T06:18:56.291Z,1.43
2018-12-07T06:19:31.396Z,1.50
2018-12-07T06:20:06.860Z,1.90
2018-12-07T06:20:41.551Z,1.53
2018-12-07T06:21:16.328Z,1.53
2018-12-07T06:21:51.687Z,1.93
2018-12-07T06:22:26.510Z,1.50
2018-12-07T06:23:01.126Z,1.60
2018-12-07T06:23:35.871Z,1.83
2018-12-07T06:24:10.557Z,1.70
2018-12-07T06:24:45.274Z,1.80
2018-12-07T06:25:20.138Z,2.30
2018-12-07T06:25:54.930Z,2.07
2018-12-07T06:26:29.578Z,2.20
2018-12-07T06:27:04.633Z,2.87
2018-12-07T06:27:39.253Z,2.83
2018-12-07T06:28:13.932Z,2.60
2018-12-07T06:28:48.612Z,3.27
2018-12-07T06:29:23.441Z,3.93
2018-12-07T06:29:58.162Z,3.93
2018-12-07T06:30:33.187Z,4.13
2018-12-07T06:31:08.113Z,3.87
2018-12-07T06:31:42.709Z,3.73
2018-12-07T06:32:17.581Z,4.10
2018-12-07T06:32:52.294Z,4.00
2018-12-07T06:33:26.932Z,4.07
2018-12-07T06:34:01.645Z,3.67
2018-12-07T06:34:36.426Z,3.87
2018-12-07T06:35:11.109Z,3.73
2018-12-07T06:35:45.822Z,3.83
2018-12-07T06:36:20.825Z,4.00
2018-12-07T06:36:55.576Z,4.47
2018-12-07T06:37:30.231Z,4.07
2018-12-07T06:38:04.857Z,3.87
2018-12-07T06:38:39.493Z,3.73
2018-12-07T06:39:14.129Z,4.20
2018-12-07T06:39:49.023Z,3.63
2018-12-07T06:40:24.084Z,3.80
2018-12-07T06:40:58.762Z,3.50
2018-12-07T06:41:33.430Z,3.97
2018-12-07T06:42:08.180Z,3.33
2018-12-07T06:42:42.954Z,3.27
2018-12-07T06:43:17.950Z,3.20
2018-12-07T06:43:52.656Z,3.17
2018-12-07T06:44:27.490Z,3.37
2018-12-07T06:45:02.187Z,2.70
2018-12-07T06:45:36.907Z,2.57
2018-12-07T06:46:11.538Z,2.40
2018-12-07T06:46:46.275Z,2.80
2018-12-07T06:47:21.279Z,2.40
2018-12-07T06:47:56.115Z,2.70
2018-12-07T06:48:31.069Z,2.13
2018-12-07T06:49:11.400Z,2.47
2018-12-07T06:49:46.075Z,2.20
2018-12-07T06:50:21.528Z,2.43
2018-12-07T06:50:57.097Z,2.00
2018-12-07T06:51:31.708Z,2.43
2018-12-07T06:52:06.337Z,2.17
2018-12-07T06:52:40.976Z,2.13
2018-12-07T06:53:15.673Z,2.40
2018-12-07T06:53:50.554Z,2.07
2018-12-07T06:54:25.296Z,1.90
2018-12-07T06:54:59.950Z,2.00
2018-12-07T06:55:34.530Z,1.90
2018-12-07T06:56:09.156Z,1.90
2018-12-07T06:56:44.307Z,1.63
2018-12-07T06:57:19.447Z,1.80
2018-12-07T06:57:54.634Z,2.03
2018-12-07T06:58:29.269Z,1.90
2018-12-07T06:59:04.338Z,1.93
2018-12-07T06:59:38.935Z,1.83
2018-12-07T07:00:14.059Z,2.07
2018-12-07T07:00:48.737Z,1.60
2018-12-07T07:01:23.426Z,1.70
2018-12-07T07:01:58.050Z,1.70
2018-12-07T07:02:32.674Z,1.77
2018-12-07T07:03:07.273Z,1.83
2018-12-07T07:03:41.874Z,2.10
2018-12-07T07:04:16.749Z,1.50
2018-12-07T07:04:51.673Z,1.77
2018-12-07T07:05:26.335Z,2.30
2018-12-07T07:06:00.957Z,1.93
2018-12-07T07:06:35.623Z,1.67
2018-12-07T07:07:10.244Z,1.90
2018-12-07T07:07:44.972Z,1.80
2018-12-07T07:08:20.047Z,1.73
2018-12-07T07:08:54.712Z,1.70
2018-12-07T07:09:29.342Z,1.93
2018-12-07T07:10:04.910Z,1.93
2018-12-07T07:10:39.541Z,1.80
2018-12-07T07:11:14.198Z,1.90
2018-12-07T07:11:48.981Z,1.80
2018-12-07T07:12:23.801Z,1.60
2018-12-07T07:12:58.659Z,1.97
2018-12-07T07:13:33.242Z,1.93
2018-12-07T07:14:07.881Z,1.67
2018-12-07T07:14:42.483Z,2.00
2018-12-07T07:15:17.555Z,1.80
2018-12-07T07:15:52.295Z,2.20
2018-12-07T07:16:27.031Z,1.70
2018-12-07T07:17:01.640Z,2.00
2018-12-07T07:17:36.352Z,1.90
2018-12-07T07:18:10.964Z,1.70
2018-12-07T07:18:45.870Z,1.93
2018-12-07T07:19:20.786Z,1.83
2018-12-07T07:19:55.810Z,2.47
2018-12-07T07:20:30.419Z,1.77
2018-12-07T07:21:05.017Z,1.70
2018-12-07T07:21:39.690Z,1.90
2018-12-07T07:22:14.331Z,2.27
2018-12-07T07:22:49.284Z,2.00
2018-12-07T07:23:24.135Z,1.90
2018-12-07T07:23:58.753Z,2.23
2018-12-07T07:24:33.363Z,2.07
2018-12-07T07:25:08.726Z,1.77
2018-12-07T07:25:43.344Z,1.90
2018-12-07T07:26:18.151Z,2.03
2018-12-07T07:26:52.886Z,1.87
2018-12-07T07:27:27.485Z,2.33
2018-12-07T07:28:02.088Z,1.97
2018-12-07T07:28:36.717Z,2.20
2018-12-07T07:29:11.417Z,2.07
2018-12-07T07:29:46.052Z,2.03
2018-12-07T07:30:20.791Z,2.10
2018-12-07T07:30:55.516Z,1.70
2018-12-07T07:31:30.129Z,2.30
2018-12-07T07:32:05.276Z,2.23
2018-12-07T07:32:39.930Z,1.90
2018-12-07T07:33:15.064Z,2.50
2018-12-07T07:33:49.734Z,2.20
2018-12-07T07:34:24.408Z,2.00
2018-12-07T07:34:59.048Z,2.83
2018-12-07T07:35:33.725Z,1.97
2018-12-07T07:36:08.841Z,2.40
2018-12-07T07:36:43.551Z,2.50
2018-12-07T07:37:18.390Z,2.13
2018-12-07T07:37:53.161Z,2.33
2018-12-07T07:38:27.830Z,2.40
2018-12-07T07:39:03.926Z,2.40
2018-12-07T07:39:38.518Z,2.70
2018-12-07T07:40:13.181Z,2.33
2018-12-07T07:40:48.426Z,2.30
2018-12-07T07:41:23.163Z,2.37
2018-12-07T07:41:57.870Z,2.37
2018-12-07T07:42:32.466Z,2.37
2018-12-07T07:43:07.407Z,2.50
2018-12-07T07:43:42.117Z,3.83
2018-12-07T07:44:17.127Z,2.90
2018-12-07T07:44:52.129Z,2.70
2018-12-07T07:45:27.424Z,3.13
2018-12-07T07:46:02.079Z,2.77
2018-12-07T07:46:36.714Z,2.80
2018-12-07T07:47:11.358Z,3.00
2018-12-07T07:47:46.315Z,2.70
2018-12-07T07:48:21.108Z,2.63
2018-12-07T07:48:55.810Z,2.70